TUU weather

Tabuk Airport
Tabuk, Tabuk Region, Saudi Arabia

Public forecast

Using degrees Celsius for public forecast. Weather courtesy of forecast.io.

METAR (pilot weather report)

Retrieved 2019/07/23 07:00 UTC (6 minutes ago):

OETB 230700Z 33004KT CAVOK 31/08 Q1008 NOSIG

TAF (pilot weather forecast)

Forecast is more than 6 hours old.

Retrieved 2019/07/23 00:21 UTC (7 hours ago):

TAF COR OETB 222300Z 2300/2406 VRB03KT CAVOK BECMG 2312/2314 24010KT